Terminal Aerodrome Forecast
Issued by NWS

Home | Current Version | Previous Version | Text Only | Print | Product List | Glossary On
Versions: 1 2 3 4 5 6 7 8 9 10 11 12 13 14 15 16
000
FTUS46 KLOX 251140
TAFSBP
TAF
KSBP 251140Z 2512/2612 VRB05KT 2SM BR BKN003
      TEMPO 2512/2515 1/2SM FG VV001
     FM251600 VRB05KT 6SM HZ SCT007
     FM252100 24007KT P6SM SKC
     FM260300 VRB05KT P6SM SKC
     FM260900 VRB05KT 3SM BR OVC003=

USA.gov is the U.S. government's official web portal to all federal, state and local government web resources and services.